createdAt,value
2018-06-15T00:00:48.692Z,9.57
2018-06-15T00:03:17.008Z,11.37
2018-06-15T00:05:45.146Z,7.00
2018-06-15T00:08:13.422Z,8.50
2018-06-15T00:10:41.617Z,7.13
2018-06-15T00:13:09.902Z,6.87
2018-06-15T00:15:38.108Z,16.50
2018-06-15T00:18:06.194Z,12.60
2018-06-15T00:20:34.574Z,9.43
2018-06-15T00:23:02.700Z,9.33
2018-06-15T00:25:31.387Z,10.20
2018-06-15T00:27:59.505Z,6.20
2018-06-15T00:30:27.662Z,7.53
2018-06-15T00:32:55.925Z,12.03
2018-06-15T00:35:24.156Z,11.43
2018-06-15T00:37:52.428Z,5.50
2018-06-15T00:40:20.728Z,5.30
2018-06-15T00:42:49.773Z,10.87
2018-06-15T00:45:18.100Z,5.20
2018-06-15T00:47:46.275Z,6.00
2018-06-15T00:50:16.008Z,5.23
2018-06-15T00:52:44.191Z,5.70
2018-06-15T00:55:12.738Z,7.97
2018-06-15T00:57:45.836Z,6.87
2018-06-15T01:00:15.203Z,12.37
2018-06-15T01:02:44.788Z,10.60
2018-06-15T01:05:12.925Z,13.23
2018-06-15T01:07:41.136Z,11.83
2018-06-15T01:10:09.064Z,10.00
2018-06-15T01:12:37.237Z,11.97
2018-06-15T01:15:05.559Z,14.23
2018-06-15T01:17:33.727Z,13.90
2018-06-15T01:20:01.947Z,17.87
2018-06-15T01:22:30.131Z,14.80
2018-06-15T01:24:58.230Z,12.73
2018-06-15T01:27:26.554Z,11.73
2018-06-15T01:29:54.656Z,10.80
2018-06-15T01:32:22.855Z,13.37
2018-06-15T01:34:51.211Z,12.80
2018-06-15T01:37:19.405Z,12.50
2018-06-15T01:39:47.672Z,12.10
2018-06-15T01:42:16.567Z,17.37
2018-06-15T01:44:44.693Z,10.60
2018-06-15T01:47:12.945Z,12.60
2018-06-15T01:49:41.072Z,15.87
2018-06-15T01:52:09.334Z,11.70
2018-06-15T01:54:37.889Z,11.80
2018-06-15T01:57:09.051Z,14.73
2018-06-15T01:59:38.016Z,17.10
2018-06-15T02:02:06.536Z,11.57
2018-06-15T02:04:35.303Z,12.57
2018-06-15T02:07:04.083Z,15.30
2018-06-15T02:09:34.303Z,15.63
2018-06-15T02:12:03.882Z,13.80
2018-06-15T02:14:32.211Z,15.43
2018-06-15T02:17:01.757Z,11.53
2018-06-15T02:19:30.188Z,14.17
2018-06-15T02:21:58.333Z,13.13
2018-06-15T02:24:26.777Z,12.93
2018-06-15T02:26:54.878Z,10.37
2018-06-15T02:29:23.034Z,10.70
2018-06-15T02:31:51.174Z,10.10
2018-06-15T02:34:19.439Z,10.70
2018-06-15T02:36:47.700Z,14.97
2018-06-15T02:39:17.446Z,25.03
2018-06-15T02:41:46.168Z,16.70
2018-06-15T02:44:15.769Z,14.00
2018-06-15T02:46:43.949Z,16.43
2018-06-15T02:49:12.233Z,15.73
2018-06-15T02:51:40.424Z,17.70
2018-06-15T02:54:08.586Z,16.63
2018-06-15T02:56:36.780Z,14.90
2018-06-15T02:59:04.981Z,21.77
2018-06-15T03:01:33.550Z,13.30
2018-06-15T03:04:03.234Z,16.83
2018-06-15T03:06:31.408Z,17.43
2018-06-15T03:08:59.803Z,16.97
2018-06-15T03:11:28.269Z,21.63
2018-06-15T03:13:56.402Z,20.50
2018-06-15T03:16:25.398Z,17.07
2018-06-15T03:18:53.535Z,20.50
2018-06-15T03:21:21.930Z,19.97
2018-06-15T03:23:50.354Z,19.00
2018-06-15T03:26:18.502Z,18.83
2018-06-15T03:28:46.658Z,17.90
2018-06-15T03:31:14.822Z,19.93
2018-06-15T03:33:42.764Z,14.33
2018-06-15T03:36:10.911Z,15.90
2018-06-15T03:38:39.194Z,18.60
2018-06-15T03:41:07.398Z,15.63
2018-06-15T03:43:35.580Z,14.40
2018-06-15T03:46:04.856Z,21.70
2018-06-15T03:48:33.234Z,17.07
2018-06-15T03:51:01.468Z,15.17
2018-06-15T03:53:29.698Z,12.33
2018-06-15T03:55:57.864Z,13.90
2018-06-15T03:58:26.056Z,17.57
2018-06-15T04:00:54.940Z,20.63
2018-06-15T04:03:23.156Z,13.53
2018-06-15T04:05:51.412Z,16.87
2018-06-15T04:08:19.930Z,13.27
2018-06-15T04:10:48.107Z,16.50
2018-06-15T04:13:16.305Z,14.20
2018-06-15T04:15:44.497Z,14.20
2018-06-15T04:18:12.678Z,17.27
2018-06-15T04:20:40.878Z,14.83
2018-06-15T04:23:08.874Z,13.50
2018-06-15T04:25:37.234Z,13.47
2018-06-15T04:28:05.412Z,16.20
2018-06-15T04:30:33.705Z,14.93
2018-06-15T04:33:02.296Z,16.23
2018-06-15T04:35:30.880Z,16.70
2018-06-15T04:37:59.283Z,15.40
2018-06-15T04:40:27.470Z,11.43
2018-06-15T04:42:55.628Z,11.93
2018-06-15T04:45:24.049Z,13.13
2018-06-15T04:47:52.271Z,13.27
2018-06-15T04:50:21.615Z,13.20
2018-06-15T04:52:49.846Z,12.90
2018-06-15T04:55:18.045Z,14.83
2018-06-15T04:57:47.363Z,13.57
2018-06-15T05:00:16.263Z,11.60
2018-06-15T05:02:44.473Z,13.97
2018-06-15T05:05:12.749Z,15.90
2018-06-15T05:07:41.559Z,13.53
2018-06-15T05:10:09.717Z,11.70
2018-06-15T05:12:37.907Z,13.10
2018-06-15T05:15:06.361Z,19.90
2018-06-15T05:17:34.780Z,10.43
2018-06-15T05:20:03.467Z,11.33
2018-06-15T05:22:31.639Z,15.70
2018-06-15T05:24:59.960Z,16.07
2018-06-15T05:27:28.213Z,14.93
2018-06-15T05:29:56.366Z,14.10
2018-06-15T05:32:24.880Z,23.93
2018-06-15T05:34:53.911Z,17.03
2018-06-15T05:37:22.171Z,14.03
2018-06-15T05:39:50.381Z,13.10
2018-06-15T05:42:18.564Z,13.60
2018-06-15T05:44:46.907Z,10.30
2018-06-15T05:47:15.571Z,16.97
2018-06-15T05:49:44.737Z,16.33
2018-06-15T05:52:12.862Z,12.97
2018-06-15T05:54:41.369Z,18.57
2018-06-15T05:57:09.733Z,15.70
2018-06-15T05:59:38.573Z,16.03
2018-06-15T06:02:06.853Z,18.03
2018-06-15T06:04:35.601Z,11.63
2018-06-15T06:07:03.840Z,11.13
2018-06-15T06:09:34.648Z,15.50
2018-06-15T06:12:05.109Z,17.73
2018-06-15T06:14:33.463Z,14.83
2018-06-15T06:17:01.613Z,22.57
2018-06-15T06:19:29.912Z,17.33
2018-06-15T06:21:58.047Z,11.83
2018-06-15T06:24:26.934Z,13.33
2018-06-15T06:26:56.252Z,18.90
2018-06-15T06:29:24.812Z,23.80
2018-06-15T06:31:56.157Z,11.10
2018-06-15T06:34:25.691Z,13.50
2018-06-15T06:36:55.008Z,15.87
2018-06-15T06:39:24.249Z,15.43
2018-06-15T06:41:53.708Z,12.50
2018-06-15T06:44:28.369Z,10.60
2018-06-15T06:46:56.528Z,14.97
2018-06-15T06:49:25.948Z,13.17
2018-06-15T06:51:54.590Z,18.00
2018-06-15T06:54:22.842Z,13.30
2018-06-15T06:56:51.048Z,12.00
2018-06-15T06:59:20.542Z,14.43
2018-06-15T07:01:48.690Z,13.83
2018-06-15T07:04:16.874Z,15.60
2018-06-15T07:06:45.266Z,14.67
2018-06-15T07:09:13.709Z,10.80
2018-06-15T07:11:41.948Z,16.10
2018-06-15T07:14:10.377Z,17.17
2018-06-15T07:16:38.601Z,16.63
2018-06-15T07:19:06.833Z,12.23
2018-06-15T07:21:37.132Z,24.10
2018-06-15T07:24:06.535Z,17.30
2018-06-15T07:26:34.759Z,11.20
2018-06-15T07:29:03.035Z,10.80
2018-06-15T07:31:31.462Z,11.70
2018-06-15T07:33:59.603Z,17.80
2018-06-15T07:36:27.859Z,11.70
2018-06-15T07:38:56.889Z,15.43
2018-06-15T07:41:25.047Z,9.50
2018-06-15T07:43:53.238Z,9.60
2018-06-15T07:46:21.348Z,11.60
2018-06-15T07:48:49.507Z,13.10
2018-06-15T07:51:18.346Z,12.10
2018-06-15T07:53:46.486Z,18.93
2018-06-15T07:56:14.700Z,11.03
2018-06-15T07:58:42.925Z,25.13
2018-06-15T08:01:12.116Z,12.93
2018-06-15T08:03:40.266Z,11.03
2018-06-15T08:06:08.528Z,9.43
2018-06-15T08:08:37.370Z,10.63
2018-06-15T08:11:05.547Z,8.43
2018-06-15T08:13:33.712Z,9.17
2018-06-15T08:16:01.893Z,18.77
2018-06-15T08:18:30.038Z,20.33
2018-06-15T08:20:58.272Z,14.77
2018-06-15T08:23:26.426Z,8.60
2018-06-15T08:25:54.645Z,7.00
2018-06-15T08:28:23.207Z,10.63
2018-06-15T08:30:51.380Z,10.40
2018-06-15T08:33:21.086Z,6.43
2018-06-15T08:35:50.220Z,10.30
2018-06-15T08:38:18.607Z,11.03
2018-06-15T08:40:46.806Z,10.63
2018-06-15T08:43:15.047Z,6.40
2018-06-15T08:45:44.190Z,11.77
2018-06-15T08:48:12.698Z,9.97
2018-06-15T08:50:40.886Z,12.10
2018-06-15T08:53:09.153Z,10.10
2018-06-15T08:55:37.334Z,8.93
2018-06-15T08:58:05.929Z,5.23
2018-06-15T09:00:34.185Z,10.57
2018-06-15T09:03:02.677Z,4.93
2018-06-15T09:05:30.884Z,10.33
2018-06-15T09:07:59.227Z,6.90
2018-06-15T09:10:27.445Z,6.60
2018-06-15T09:12:55.684Z,9.93
2018-06-15T09:15:23.995Z,6.37
2018-06-15T09:17:52.343Z,10.83
2018-06-15T09:20:20.619Z,8.63
2018-06-15T09:22:48.873Z,7.17
2018-06-15T09:25:17.088Z,7.57
2018-06-15T09:27:45.423Z,7.47
2018-06-15T09:30:13.608Z,5.20
2018-06-15T09:32:43.468Z,5.80
2018-06-15T09:35:11.698Z,4.93
2018-06-15T09:37:39.875Z,9.33
2018-06-15T09:40:08.095Z,12.90
2018-06-15T09:42:36.262Z,9.30
2018-06-15T09:45:05.893Z,3.73
2018-06-15T09:47:34.118Z,6.97
2018-06-15T09:50:02.407Z,6.97
2018-06-15T09:52:31.619Z,7.90
2018-06-15T09:54:59.997Z,5.60
2018-06-15T09:57:28.807Z,6.27
2018-06-15T09:59:57.031Z,6.13
2018-06-15T10:02:25.343Z,4.33
2018-06-15T10:04:55.042Z,9.70
2018-06-15T10:07:23.221Z,10.40
2018-06-15T10:09:51.975Z,10.30
2018-06-15T10:12:20.149Z,10.67
2018-06-15T10:14:48.347Z,7.63
2018-06-15T10:17:16.556Z,13.53
2018-06-15T10:19:44.785Z,8.97
2018-06-15T10:22:12.940Z,6.60
2018-06-15T10:24:41.494Z,10.33
2018-06-15T10:27:10.135Z,4.57
2018-06-15T10:29:38.318Z,6.63
2018-06-15T10:32:06.558Z,5.80
2018-06-15T10:34:34.945Z,9.30
2018-06-15T10:37:03.223Z,10.50
2018-06-15T10:39:31.388Z,10.30
2018-06-15T10:42:00.422Z,12.73
2018-06-15T10:44:28.636Z,8.27
2018-06-15T10:46:57.002Z,11.63
2018-06-15T10:49:25.308Z,8.43
2018-06-15T10:51:53.490Z,6.80
2018-06-15T10:54:21.700Z,11.40
2018-06-15T10:56:50.208Z,5.87
2018-06-15T10:59:18.729Z,4.43
2018-06-15T11:01:49.018Z,7.03
2018-06-15T11:04:17.156Z,3.90
2018-06-15T11:06:46.440Z,5.23
2018-06-15T11:09:14.676Z,4.53
2018-06-15T11:11:42.831Z,3.10
2018-06-15T11:14:12.009Z,3.00
2018-06-15T11:16:40.138Z,4.80
2018-06-15T11:19:08.334Z,3.30
2018-06-15T11:21:36.850Z,31.87
2018-06-15T11:24:05.208Z,3.60
2018-06-15T11:26:34.285Z,4.13
2018-06-15T11:29:02.498Z,4.67
2018-06-15T11:31:30.792Z,4.03
2018-06-15T11:33:59.052Z,5.10
2018-06-15T11:36:27.225Z,2.13
2018-06-15T11:38:55.759Z,2.30
2018-06-15T11:41:23.931Z,4.10
2018-06-15T11:43:52.222Z,5.90
2018-06-15T11:46:20.488Z,5.67
2018-06-15T11:48:49.866Z,3.50
2018-06-15T11:51:18.205Z,6.33
2018-06-15T11:53:46.712Z,2.53
2018-06-15T11:56:16.523Z,7.43
2018-06-15T11:58:44.717Z,4.03
2018-06-15T12:01:12.869Z,3.57
2018-06-15T12:03:41.027Z,2.60
2018-06-15T12:06:09.206Z,3.13
2018-06-15T12:08:37.495Z,3.20
2018-06-15T12:11:05.659Z,4.07
2018-06-15T12:13:33.959Z,9.67
2018-06-15T12:16:02.061Z,3.63
2018-06-15T12:18:30.221Z,3.13
2018-06-15T12:20:58.411Z,7.70
2018-06-15T12:23:26.701Z,6.10
2018-06-15T12:25:54.822Z,2.80
2018-06-15T12:28:22.987Z,3.03
2018-06-15T12:30:51.184Z,3.93
2018-06-15T12:33:19.359Z,6.70
2018-06-15T12:35:47.530Z,4.60
2018-06-15T12:38:15.960Z,2.80
2018-06-15T12:40:44.193Z,3.03
2018-06-15T12:43:12.406Z,6.80
2018-06-15T12:45:40.687Z,16.73
2018-06-15T12:48:08.881Z,4.57
2018-06-15T12:50:37.323Z,7.50
2018-06-15T12:53:05.477Z,7.37
2018-06-15T12:55:33.644Z,3.10
2018-06-15T12:58:02.093Z,4.87
2018-06-15T13:00:30.205Z,7.17
2018-06-15T13:02:58.731Z,4.53
2018-06-15T13:05:27.026Z,4.30
2018-06-15T13:07:55.278Z,4.50
2018-06-15T13:10:23.590Z,4.10
2018-06-15T13:12:51.918Z,9.97
2018-06-15T13:15:20.579Z,4.20
2018-06-15T13:17:48.779Z,4.73
2018-06-15T13:20:17.117Z,5.07
2018-06-15T13:22:46.372Z,7.27
2018-06-15T13:25:14.503Z,13.70
2018-06-15T13:27:42.877Z,8.97
2018-06-15T13:30:11.059Z,6.60
2018-06-15T13:32:39.189Z,5.03
2018-06-15T13:35:07.489Z,6.63
2018-06-15T13:37:35.679Z,8.30
2018-06-15T13:40:04.091Z,4.13
2018-06-15T13:42:33.187Z,3.97
2018-06-15T13:45:02.484Z,5.17
2018-06-15T13:47:30.668Z,5.20
2018-06-15T13:49:58.993Z,6.27
2018-06-15T13:52:27.275Z,3.60
2018-06-15T13:54:55.723Z,6.23
2018-06-15T13:57:23.943Z,5.50
2018-06-15T13:59:52.401Z,8.30
2018-06-15T14:02:20.727Z,5.50
2018-06-15T14:04:48.853Z,5.90
2018-06-15T14:07:16.888Z,4.40
2018-06-15T14:09:45.062Z,7.00
2018-06-15T14:12:13.228Z,5.00
2018-06-15T14:14:41.429Z,5.70
2018-06-15T14:17:09.777Z,5.10
2018-06-15T14:19:38.217Z,8.33
2018-06-15T14:22:06.565Z,11.40
2018-06-15T14:24:35.829Z,8.50
2018-06-15T14:27:05.432Z,11.57
2018-06-15T14:29:33.597Z,6.80
2018-06-15T14:32:03.371Z,6.67
2018-06-15T14:34:31.850Z,9.40
2018-06-15T14:37:00.842Z,8.50
2018-06-15T14:39:29.279Z,5.47
2018-06-15T14:41:58.194Z,7.63
2018-06-15T14:44:26.415Z,5.50
2018-06-15T14:46:55.007Z,7.63
2018-06-15T14:49:23.347Z,4.23
2018-06-15T14:51:51.548Z,3.53
2018-06-15T14:54:19.868Z,4.00
2018-06-15T14:56:48.039Z,3.83
2018-06-15T14:59:17.003Z,3.50
2018-06-15T15:01:45.198Z,12.47
2018-06-15T15:04:13.362Z,5.27
2018-06-15T15:06:41.552Z,6.23
2018-06-15T15:09:12.969Z,4.87
2018-06-15T15:11:41.201Z,3.27
2018-06-15T15:14:09.376Z,3.70
2018-06-15T15:16:37.822Z,11.47
2018-06-15T15:19:05.983Z,4.97
2018-06-15T15:21:34.848Z,3.80
2018-06-15T15:24:03.520Z,5.97
2018-06-15T15:26:31.690Z,5.30
2018-06-15T15:28:59.842Z,3.30
2018-06-15T15:31:28.042Z,4.17
2018-06-15T15:33:56.966Z,7.10
2018-06-15T15:36:25.955Z,2.97
2018-06-15T15:38:54.095Z,5.90
2018-06-15T15:41:22.815Z,3.50
2018-06-15T15:43:50.994Z,7.60
2018-06-15T15:46:19.168Z,4.20
2018-06-15T15:48:47.427Z,3.23
2018-06-15T15:51:15.782Z,5.23
2018-06-15T15:53:43.933Z,8.30
2018-06-15T15:56:12.561Z,4.60
2018-06-15T15:58:40.855Z,9.97
2018-06-15T16:01:09.029Z,7.07
2018-06-15T16:03:37.621Z,13.07
2018-06-15T16:06:05.818Z,8.50
2018-06-15T16:08:33.999Z,8.00
2018-06-15T16:11:02.204Z,5.40
2018-06-15T16:13:30.911Z,4.73
2018-06-15T16:15:59.235Z,6.20
2018-06-15T16:18:27.439Z,4.10
2018-06-15T16:20:56.349Z,15.17
2018-06-15T16:23:24.669Z,11.30
2018-06-15T16:25:53.058Z,5.37
2018-06-15T16:28:22.016Z,3.20
2018-06-15T16:30:51.408Z,3.50
2018-06-15T16:33:20.472Z,4.63
2018-06-15T16:35:50.951Z,12.03
2018-06-15T16:38:21.130Z,3.47
2018-06-15T16:40:49.307Z,8.47
2018-06-15T16:43:17.532Z,6.13
2018-06-15T16:45:46.156Z,4.30
2018-06-15T16:48:14.390Z,6.80
2018-06-15T16:50:42.652Z,8.63
2018-06-15T16:53:10.916Z,8.70
2018-06-15T16:55:39.810Z,15.37
2018-06-15T16:58:08.174Z,6.50
2018-06-15T17:00:36.380Z,6.70
2018-06-15T17:03:04.657Z,3.73
2018-06-15T17:05:33.179Z,7.50
2018-06-15T17:08:01.355Z,4.00
2018-06-15T17:10:29.703Z,8.13
2018-06-15T17:12:58.113Z,5.30
2018-06-15T17:15:27.223Z,8.17
2018-06-15T17:17:55.395Z,13.80
2018-06-15T17:20:23.526Z,4.50
2018-06-15T17:22:51.823Z,7.50
2018-06-15T17:25:20.007Z,6.83
2018-06-15T17:27:48.157Z,8.73
2018-06-15T17:30:17.459Z,5.27
2018-06-15T17:32:45.517Z,6.07
2018-06-15T17:35:13.675Z,8.00
2018-06-15T17:37:41.813Z,5.67
2018-06-15T17:40:10.155Z,6.83
2018-06-15T17:42:38.339Z,6.40
2018-06-15T17:45:07.255Z,8.93
2018-06-15T17:47:35.405Z,9.60
2018-06-15T17:50:03.731Z,6.87
2018-06-15T17:52:32.597Z,12.63
2018-06-15T17:55:00.823Z,10.50
2018-06-15T17:57:29.616Z,7.73
2018-06-15T17:59:57.797Z,10.60
2018-06-15T18:02:26.189Z,9.33
2018-06-15T18:04:54.425Z,9.10
2018-06-15T18:07:22.605Z,13.23
2018-06-15T18:09:50.931Z,17.47
2018-06-15T18:12:19.148Z,16.60
2018-06-15T18:14:47.071Z,22.30
2018-06-15T18:17:15.499Z,13.10
2018-06-15T18:19:43.461Z,16.03
2018-06-15T18:22:11.886Z,9.97
2018-06-15T18:24:40.152Z,7.37
2018-06-15T18:27:09.049Z,17.80
2018-06-15T18:29:37.549Z,8.80
2018-06-15T18:32:05.693Z,10.67
2018-06-15T18:34:34.181Z,8.00
2018-06-15T18:37:02.584Z,7.30
2018-06-15T18:39:30.775Z,9.27
2018-06-15T18:41:58.945Z,7.90
2018-06-15T18:44:27.627Z,8.10
2018-06-15T18:46:55.885Z,8.37
2018-06-15T18:49:24.047Z,7.40
2018-06-15T18:51:52.363Z,8.27
2018-06-15T18:54:20.865Z,6.23
2018-06-15T18:56:49.023Z,7.40
2018-06-15T18:59:16.982Z,8.63
2018-06-15T19:01:46.094Z,5.43
2018-06-15T19:04:14.410Z,5.50
2018-06-15T19:06:42.599Z,6.13
2018-06-15T19:09:12.031Z,8.40
2018-06-15T19:11:40.254Z,9.53
2018-06-15T19:14:08.598Z,8.23
2018-06-15T19:16:36.833Z,4.73
2018-06-15T19:19:05.018Z,4.60
2018-06-15T19:21:33.222Z,7.03
2018-06-15T19:24:01.500Z,9.73
2018-06-15T19:26:29.934Z,6.60
2018-06-15T19:28:58.334Z,4.70
2018-06-15T19:31:26.500Z,10.93
2018-06-15T19:33:56.436Z,6.93
2018-06-15T19:36:24.718Z,5.90
2018-06-15T19:38:53.138Z,8.40
2018-06-15T19:41:21.384Z,9.47
2018-06-15T19:43:49.880Z,6.80
2018-06-15T19:46:18.937Z,8.63
2018-06-15T19:48:46.924Z,9.07
2018-06-15T19:51:15.168Z,20.17
2018-06-15T19:53:44.526Z,13.17
2018-06-15T19:56:12.672Z,18.17
2018-06-15T19:58:40.835Z,16.73
2018-06-15T20:01:09.048Z,26.40
2018-06-15T20:03:37.269Z,30.93
2018-06-15T20:06:05.800Z,36.43
2018-06-15T20:08:33.946Z,32.97
2018-06-15T20:11:02.120Z,38.60
2018-06-15T20:13:30.400Z,31.40
2018-06-15T20:15:58.646Z,17.57
2018-06-15T20:18:27.160Z,19.57
2018-06-15T20:20:55.408Z,24.70
2018-06-15T20:23:23.634Z,19.13
2018-06-15T20:25:51.872Z,17.20
2018-06-15T20:28:20.139Z,16.40
2018-06-15T20:30:48.323Z,10.93
2018-06-15T20:33:16.642Z,12.10
2018-06-15T20:35:44.776Z,17.33
2018-06-15T20:38:12.936Z,15.30
2018-06-15T20:40:41.264Z,11.83
2018-06-15T20:43:09.480Z,13.70
2018-06-15T20:45:37.668Z,10.50
2018-06-15T20:48:06.476Z,14.23
2018-06-15T20:50:34.612Z,18.43
2018-06-15T20:53:03.695Z,8.97
2018-06-15T20:55:32.112Z,10.63
2018-06-15T20:58:00.362Z,9.00
2018-06-15T21:00:29.451Z,7.80
2018-06-15T21:02:57.688Z,13.50
2018-06-15T21:05:25.866Z,8.50
2018-06-15T21:07:54.341Z,10.83
2018-06-15T21:10:22.562Z,12.53
2018-06-15T21:12:51.255Z,8.03
2018-06-15T21:15:20.556Z,9.63
2018-06-15T21:17:48.758Z,25.90
2018-06-15T21:20:17.703Z,9.17
2018-06-15T21:22:46.350Z,9.67
2018-06-15T21:25:14.528Z,45.57
2018-06-15T21:27:42.717Z,13.13
2018-06-15T21:30:11.082Z,5.07
2018-06-15T21:32:39.341Z,8.63
2018-06-15T21:35:07.508Z,16.03
2018-06-15T21:37:36.032Z,6.77
2018-06-15T21:40:04.495Z,7.03
2018-06-15T21:42:32.707Z,7.10
2018-06-15T21:45:02.473Z,9.17
2018-06-15T21:47:30.791Z,13.70
2018-06-15T21:49:59.003Z,8.20
2018-06-15T21:52:27.163Z,12.30
2018-06-15T21:54:55.411Z,6.67
2018-06-15T21:57:24.556Z,12.57
2018-06-15T21:59:52.989Z,12.60
2018-06-15T22:02:21.270Z,9.83
2018-06-15T22:04:52.310Z,19.13
2018-06-15T22:07:20.649Z,11.57
2018-06-15T22:09:48.880Z,24.13
2018-06-15T22:12:17.066Z,9.80
2018-06-15T22:14:45.602Z,12.10
2018-06-15T22:17:14.123Z,10.00
2018-06-15T22:19:42.228Z,9.07
2018-06-15T22:22:11.165Z,9.40
2018-06-15T22:24:40.732Z,8.20
2018-06-15T22:27:09.015Z,8.53
2018-06-15T22:29:37.301Z,8.90
2018-06-15T22:32:05.899Z,10.97
2018-06-15T22:34:34.076Z,7.77
2018-06-15T22:37:02.428Z,12.00
2018-06-15T22:39:30.629Z,9.67
2018-06-15T22:41:58.916Z,15.40
2018-06-15T22:44:28.104Z,8.50
2018-06-15T22:46:56.312Z,9.47
2018-06-15T22:49:24.545Z,11.13
2018-06-15T22:51:52.818Z,9.90
2018-06-15T22:54:21.008Z,12.83
2018-06-15T22:56:49.238Z,12.80
2018-06-15T22:59:17.463Z,9.40
2018-06-15T23:01:45.912Z,8.00
2018-06-15T23:04:14.041Z,9.63
2018-06-15T23:06:42.388Z,10.50
2018-06-15T23:09:12.035Z,9.97
2018-06-15T23:11:40.753Z,12.87
2018-06-15T23:14:08.985Z,12.90
2018-06-15T23:16:37.171Z,9.37
2018-06-15T23:19:05.396Z,15.50
2018-06-15T23:21:33.837Z,11.13
2018-06-15T23:24:01.961Z,11.67
2018-06-15T23:26:30.851Z,12.40
2018-06-15T23:28:59.342Z,10.73
2018-06-15T23:31:27.576Z,10.70
2018-06-15T23:33:56.301Z,9.70
2018-06-15T23:36:24.483Z,12.43
2018-06-15T23:38:52.644Z,14.23
2018-06-15T23:41:21.557Z,11.97
2018-06-15T23:43:49.740Z,9.80
2018-06-15T23:46:18.269Z,18.17
2018-06-15T23:48:46.495Z,14.60
2018-06-15T23:51:14.651Z,13.03
2018-06-15T23:53:42.900Z,10.77
2018-06-15T23:56:11.352Z,10.17
2018-06-15T23:58:39.753Z,10.67
